Time;durP1;ratioP1;P1;durP2;ratioP2;P2;SDS_P1;SDS_P2;PMS_P1;PMS_P2;Temp;Humidity;BMP_temperature;BMP_pressure;BME280_temperature;BME280_humidity;BME280_pressure;Samples;Min_cycle;Max_cycle;Signal;HPM_P1;HPM_P2
2023/08/19 00:00:19;;;;;;;;;;;;;;;;;;4387742;32;68545;-58
2023/08/19 00:03:05;;;;;;;7.35;4.37;;;;;;;;;;4410992;32;58912;-58
2023/08/19 00:05:51;;;;;;;7.68;5.30;;;;;;;;;;4408496;32;71577;-59
2023/08/19 00:08:38;;;;;;;8.80;4.87;;;;;;;;;;4410440;32;69387;-58
2023/08/19 00:11:24;;;;;;;7.03;4.78;;;;;;;;;;4410395;32;67579;-58
2023/08/19 00:14:11;;;;;;;;;;;;;;;;;;4410564;32;71555;-58
2023/08/19 00:16:57;;;;;;;7.28;4.50;;;;;;;;;;4408965;32;68078;-58
2023/08/19 00:19:44;;;;;;;7.35;4.85;;;;;;;;;;4410252;32;69247;-58
2023/08/19 00:22:31;;;;;;;10.48;4.68;;;;;;;;;;4408806;32;67727;-58
2023/08/19 00:25:17;;;;;;;8.98;4.97;;;;;;;;;;4408244;32;73077;-59
2023/08/19 00:28:04;;;;;;;9.55;5.50;;;;;;;;;;4409885;32;65848;-58
2023/08/19 00:30:51;;;;;;;9.85;4.80;;;;;;;;;;4408850;32;68057;-59
2023/08/19 00:33:37;;;;;;;7.65;4.65;;;;;;;;;;4409088;32;60145;-58
2023/08/19 00:36:25;;;;;;;10.65;4.60;;;;;;;;;;4410095;32;70542;-58
2023/08/19 00:39:16;;;;;;;9.70;6.07;;;;;;;;;;4395738;32;69775;-58
2023/08/19 00:42:03;;;;;;;7.60;5.00;;;;;;;;;;4398623;32;67486;-59
2023/08/19 00:44:49;;;;;;;6.82;5.07;;;;;;;;;;4400089;32;60482;-60
2023/08/19 00:47:38;;;;;;;10.90;5.72;;;;;;;;;;4387677;32;69983;-59
2023/08/19 00:50:25;;;;;;;7.97;5.15;;;;;;;;;;4399688;32;69456;-58
2023/08/19 00:53:13;;;;;;;7.05;5.32;;;;;;;;;;4398384;32;66869;-58
2023/08/19 00:56:00;;;;;;;9.90;5.18;;;;;;;;;;4398648;32;71299;-59
2023/08/19 00:58:47;;;;;;;8.50;4.90;;;;;;;;;;4398436;32;65969;-58
2023/08/19 01:01:34;;;;;;;8.30;5.50;;;;;;;;;;4399699;32;66637;-58
2023/08/19 01:04:20;;;;;;;8.85;5.30;;;;;;;;;;4397992;32;60947;-57
2023/08/19 01:07:28;;;;;;;8.18;5.40;;;;;;;;;;4376360;32;70936;-58
2023/08/19 01:10:33;;;;;;;;;;;;;;;;;;4399872;32;64948;-58
2023/08/19 01:13:22;;;;;;;6.65;5.00;;;;;;;;;;4376424;32;68190;-58
2023/08/19 01:16:22;;;;;;;9.65;5.55;;;;;;;;;;4398480;32;60453;-58
2023/08/19 01:19:14;;;;;;;10.13;5.43;;;;;;;;;;4376689;32;70389;-58
2023/08/19 01:22:04;;;;;;;7.50;5.40;;;;;;;;;;4386834;32;69073;-58
2023/08/19 01:24:45;;;;;;;7.12;5.50;;;;;;;;;;3863633;36;43597;-59
2023/08/19 01:27:34;;;;;;;10.05;6.20;;;;;;;;;;4406285;32;59708;-58
2023/08/19 01:30:23;;;;;;;9.93;6.15;;;;;;;;;;4426246;32;70496;-58
2023/08/19 01:33:10;;;;;;;7.57;6.18;;;;;;;;;;4411234;32;69657;-58
2023/08/19 01:36:07;;;;;;;12.20;6.57;;;;;;;;;;4426352;32;67140;-59
2023/08/19 01:39:05;;;;;;;8.02;5.97;;;;;;;;;;4426095;32;71874;-58
2023/08/19 01:41:51;;;;;;;8.85;6.43;;;;;;;;;;4403471;32;64988;-58
2023/08/19 01:44:39;;;;;;;11.10;6.55;;;;;;;;;;4426074;32;66368;-58
2023/08/19 01:47:25;;;;;;;11.55;6.80;;;;;;;;;;4426277;32;60159;-59
2023/08/19 01:50:12;;;;;;;8.70;5.95;;;;;;;;;;4414002;32;70421;-58
2023/08/19 01:52:58;;;;;;;8.57;5.95;;;;;;;;;;4410966;32;66490;-58
2023/08/19 01:55:47;;;;;;;8.82;6.28;;;;;;;;;;4425919;32;67716;-58
2023/08/19 01:58:34;;;;;;;9.77;6.30;;;;;;;;;;4426347;32;59752;-59
2023/08/19 02:01:21;;;;;;;9.60;6.85;;;;;;;;;;4413603;32;69433;-58
2023/08/19 02:04:07;;;;;;;13.88;7.10;;;;;;;;;;4425662;32;69398;-58
2023/08/19 02:06:54;;;;;;;;;;;;;;;;;;4426357;32;67671;-58
2023/08/19 02:09:41;;;;;;;10.77;7.10;;;;;;;;;;4413796;32;72081;-59
2023/08/19 02:12:27;;;;;;;11.77;7.22;;;;;;;;;;4426072;32;66090;-58
2023/08/19 02:15:14;;;;;;;10.55;7.40;;;;;;;;;;4425943;32;69337;-58
2023/08/19 02:18:01;;;;;;;10.75;8.25;;;;;;;;;;4413835;32;67252;-58
2023/08/19 02:20:48;;;;;;;11.38;7.72;;;;;;;;;;4413547;32;71726;-58
2023/08/19 02:23:35;;;;;;;9.20;7.22;;;;;;;;;;4425358;32;66200;-58
2023/08/19 02:26:21;;;;;;;11.18;8.00;;;;;;;;;;4425647;32;66848;-58
2023/08/19 02:29:08;;;;;;;;;;;;;;;;;;4411348;32;60300;-58
2023/08/19 02:31:54;;;;;;;10.47;7.87;;;;;;;;;;4413642;32;70205;-58
2023/08/19 02:34:41;;;;;;;;;;;;;;;;;;4406461;32;70566;-59
2023/08/19 02:37:27;;;;;;;12.10;8.07;;;;;;;;;;4415373;32;67109;-58
2023/08/19 02:40:15;;;;;;;11.98;8.20;;;;;;;;;;4415658;32;59305;-58
2023/08/19 02:43:02;;;;;;;12.95;7.85;;;;;;;;;;4415016;32;70847;-58
2023/08/19 02:45:49;;;;;;;11.65;8.13;;;;;;;;;;4415054;32;69493;-58
2023/08/19 02:48:36;;;;;;;12.02;8.43;;;;;;;;;;4414975;32;67806;-58
2023/08/19 02:51:24;;;;;;;10.43;7.82;;;;;;;;;;4400053;32;72916;-58
2023/08/19 02:54:13;;;;;;;13.77;8.05;;;;;;;;;;4402809;32;65216;-58
2023/08/19 02:57:00;;;;;;;11.27;7.93;;;;;;;;;;4402985;32;67283;-58
2023/08/19 02:59:46;;;;;;;11.85;8.25;;;;;;;;;;4392362;32;59228;-58
2023/08/19 03:02:34;;;;;;;10.60;8.32;;;;;;;;;;4414714;32;69825;-58
2023/08/19 03:05:21;;;;;;;14.20;8.98;;;;;;;;;;4414873;32;64972;-58
2023/08/19 03:08:09;;;;;;;10.57;8.13;;;;;;;;;;4402821;32;66649;-58
2023/08/19 03:10:55;;;;;;;13.70;8.80;;;;;;;;;;4414952;32;58982;-58
2023/08/19 03:13:41;;;;;;;13.10;9.57;;;;;;;;;;4414769;32;69773;-58
2023/08/19 03:16:29;;;;;;;13.43;9.50;;;;;;;;;;4399740;32;69710;-58
2023/08/19 03:19:15;;;;;;;;;;;;;;;;;;4402982;32;67548;-58
2023/08/19 03:22:02;;;;;;;14.63;9.35;;;;;;;;;;4414851;32;71089;-58
2023/08/19 03:24:48;;;;;;;;;;;;;;;;;;4402562;32;66115;-59
2023/08/19 03:27:36;;;;;;;12.73;9.20;;;;;;;;;;4415064;32;68044;-58
2023/08/19 03:30:23;;;;;;;15.48;9.55;;;;;;;;;;4399476;32;68418;-58
2023/08/19 03:33:09;;;;;;;10.27;8.65;;;;;;;;;;4414425;32;71859;-59
2023/08/19 03:35:58;;;;;;;;;;;;;;;;;;4414900;32;65017;-58
2023/08/19 03:38:44;;;;;;;10.95;7.93;;;;;;;;;;4392004;32;67915;-58
2023/08/19 03:41:30;;;;;;;9.73;7.30;;;;;;;;;;4402536;32;60602;-58
2023/08/19 03:44:18;;;;;;;16.58;9.20;;;;;;;;;;4414432;32;70890;-58
2023/08/19 03:47:04;;;;;;;13.50;9.10;;;;;;;;;;4391962;32;69290;-59
2023/08/19 03:49:51;;;;;;;13.27;9.98;;;;;;;;;;4399574;32;67399;-58
2023/08/19 03:52:37;;;;;;;14.30;10.45;;;;;;;;;;4414416;32;59321;-58
2023/08/19 03:55:28;;;;;;;15.43;9.23;;;;;;;;;;4376485;32;70917;-58
2023/08/19 03:58:15;;;;;;;12.52;8.98;;;;;;;;;;4398666;32;69509;-58
2023/08/19 04:01:06;;;;;;;14.35;9.55;;;;;;;;;;4386662;32;66679;-58
2023/08/19 04:03:53;;;;;;;12.63;9.52;;;;;;;;;;4398599;32;71538;-58
2023/08/19 04:06:46;;;;;;;15.32;9.43;;;;;;;;;;4383939;32;67444;-58
2023/08/19 04:09:32;;;;;;;12.07;9.07;;;;;;;;;;4386564;32;67863;-58
2023/08/19 04:12:19;;;;;;;19.73;9.55;;;;;;;;;;4376204;32;60137;-58
2023/08/19 04:15:08;;;;;;;12.35;8.93;;;;;;;;;;4398461;32;70519;-58
2023/08/19 04:17:54;;;;;;;13.85;8.80;;;;;;;;;;4383805;32;66384;-58
2023/08/19 04:20:41;;;;;;;;;;;;;;;;;;4386987;32;67736;-58
2023/08/19 04:23:27;;;;;;;13.98;9.25;;;;;;;;;;4386584;32;59046;-58
2023/08/19 04:26:14;;;;;;;18.20;9.55;;;;;;;;;;4398440;32;70501;-59
2023/08/19 04:29:00;;;;;;;15.60;9.77;;;;;;;;;;4386353;32;69326;-58
2023/08/19 04:31:47;;;;;;;9.00;7.93;;;;;;;;;;4386616;32;67668;-58
2023/08/19 04:34:34;;;;;;;15.05;9.07;;;;;;;;;;4398152;32;71559;-58
2023/08/19 04:37:21;;;;;;;15.23;9.25;;;;;;;;;;4373335;32;64722;-58
2023/08/19 04:40:09;;;;;;;13.32;8.80;;;;;;;;;;4398568;32;67631;-58
2023/08/19 04:42:57;;;;;;;12.50;9.70;;;;;;;;;;4398287;32;67034;-58
2023/08/19 04:45:47;;;;;;;15.57;9.88;;;;;;;;;;4372825;32;71827;-58
2023/08/19 04:48:37;;;;;;;13.23;9.48;;;;;;;;;;4398273;32;65975;-57
2023/08/19 04:51:23;;;;;;;11.90;9.20;;;;;;;;;;4398244;32;67586;-58
2023/08/19 04:54:10;;;;;;;12.02;8.73;;;;;;;;;;4386531;32;60416;-58
2023/08/19 04:56:57;;;;;;;12.40;9.05;;;;;;;;;;4383388;32;71239;-59
2023/08/19 04:59:43;;;;;;;13.23;9.13;;;;;;;;;;4383369;32;68902;-58
2023/08/19 05:02:30;;;;;;;15.35;9.40;;;;;;;;;;4398040;32;67777;-59
2023/08/19 05:05:17;;;;;;;11.80;9.15;;;;;;;;;;4398268;32;71673;-58
2023/08/19 05:08:04;;;;;;;12.02;9.15;;;;;;;;;;4397934;32;70589;-58
2023/08/19 05:10:53;;;;;;;12.95;10.15;;;;;;;;;;4397933;32;68385;-58
2023/08/19 05:13:43;;;;;;;14.35;9.02;;;;;;;;;;4386008;32;67556;-58
2023/08/19 05:16:30;;;;;;;12.25;8.45;;;;;;;;;;4397759;32;71417;-58
2023/08/19 05:19:17;;;;;;;;;;;;;;;;;;4386347;32;65899;-58
2023/08/19 05:22:03;;;;;;;13.73;10.40;;;;;;;;;;4398204;32;67266;-59
2023/08/19 05:24:50;;;;;;;12.18;10.13;;;;;;;;;;4385825;32;60330;-59
2023/08/19 05:27:37;;;;;;;12.70;9.07;;;;;;;;;;4397767;32;70510;-59
2023/08/19 05:30:24;;;;;;;13.65;9.23;;;;;;;;;;4383131;32;69959;-58
2023/08/19 05:33:12;;;;;;;13.13;9.45;;;;;;;;;;4385701;32;67538;-60
2023/08/19 05:35:59;;;;;;;13.18;9.43;;;;;;;;;;4397898;32;59302;-59
2023/08/19 05:38:46;;;;;;;11.40;9.38;;;;;;;;;;4385688;32;70794;-59
2023/08/19 05:41:32;;;;;;;11.23;8.93;;;;;;;;;;4397881;32;69721;-59
2023/08/19 05:44:19;;;;;;;10.85;8.10;;;;;;;;;;4397672;32;66757;-59
2023/08/19 05:47:06;;;;;;;;;;;;;;;;;;4397997;32;71659;-59
2023/08/19 05:49:52;;;;;;;13.48;8.75;;;;;;;;;;4398101;32;65309;-58
2023/08/19 05:52:38;;;;;;;12.37;9.02;;;;;;;;;;4372121;32;66883;-58
2023/08/19 05:55:25;;;;;;;11.52;9.25;;;;;;;;;;4383092;32;60964;-59
2023/08/19 05:58:12;;;;;;;13.48;9.35;;;;;;;;;;4397418;32;70764;-59
2023/08/19 06:01:00;;;;;;;12.23;9.40;;;;;;;;;;4385975;32;64970;-58
2023/08/19 06:03:46;;;;;;;9.85;7.72;;;;;;;;;;4397517;32;67942;-59
2023/08/19 06:06:33;;;;;;;10.32;8.05;;;;;;;;;;4398412;32;58836;-57
2023/08/19 06:09:20;;;;;;;11.50;8.55;;;;;;;;;;4397687;32;69473;-58
2023/08/19 06:12:07;;;;;;;15.38;9.77;;;;;;;;;;4374578;32;70279;-57
2023/08/19 06:14:53;;;;;;;11.38;8.93;;;;;;;;;;4387956;32;67822;-58
2023/08/19 06:17:42;;;;;;;12.65;9.00;;;;;;;;;;4388303;32;71726;-59
2023/08/19 06:20:29;;;;;;;14.73;9.35;;;;;;;;;;4385130;32;71762;-59
2023/08/19 06:23:17;;;;;;;12.95;9.00;;;;;;;;;;4399746;32;68351;-58
2023/08/19 06:26:04;;;;;;;11.88;9.13;;;;;;;;;;4399924;32;67183;-58
2023/08/19 06:28:50;;;;;;;;;;;;;;;;;;4400157;32;71498;-58
2023/08/19 06:31:37;;;;;;;11.50;8.85;;;;;;;;;;4388116;32;65443;-58
2023/08/19 06:34:24;;;;;;;12.15;9.45;;;;;;;;;;4388000;32;68018;-58
2023/08/19 06:37:13;;;;;;;11.40;8.90;;;;;;;;;;4399998;32;60108;-58
2023/08/19 06:40:06;;;;;;;14.52;8.88;;;;;;;;;;4387740;32;69676;-58
2023/08/19 06:42:56;;;;;;;11.27;8.77;;;;;;;;;;4384928;32;70002;-58
2023/08/19 06:45:42;;;;;;;12.15;8.73;;;;;;;;;;4387497;32;67480;-58
2023/08/19 06:48:29;;;;;;;13.52;8.23;;;;;;;;;;4388206;32;59958;-58
2023/08/19 06:51:16;;;;;;;10.90;8.63;;;;;;;;;;4384945;32;70202;-57
2023/08/19 06:54:03;;;;;;;13.62;9.05;;;;;;;;;;4376959;32;69431;-58
2023/08/19 06:57:12;;;;;;;11.35;8.23;;;;;;;;;;4399887;32;67518;-57
2023/08/19 07:00:08;;;;;;;10.63;8.65;;;;;;;;;;4399508;32;70820;-58
2023/08/19 07:02:54;;;;;;;11.80;7.37;;;;;;;;;;4399878;32;66257;-58
2023/08/19 07:05:41;;;;;;;8.82;7.18;;;;;;;;;;4387460;32;67915;-58
2023/08/19 07:08:30;;;;;;;11.20;7.93;;;;;;;;;;4377002;32;58937;-58
2023/08/19 07:11:18;;;;;;;10.20;8.00;;;;;;;;;;4387523;32;71026;-58
2023/08/19 07:14:04;;;;;;;12.48;8.65;;;;;;;;;;4399446;32;64903;-57
2023/08/19 07:16:52;;;;;;;10.98;8.35;;;;;;;;;;4399285;32;66970;-59
2023/08/19 07:19:40;;;;;;;11.60;8.57;;;;;;;;;;4387650;32;59356;-58
2023/08/19 07:22:28;;;;;;;13.48;8.02;;;;;;;;;;4398952;32;70514;-58
2023/08/19 07:25:14;;;;;;;12.15;8.23;;;;;;;;;;4386832;32;69366;-58
2023/08/19 07:28:04;;;;;;;8.90;5.90;;;;;;;;;;4387263;32;66761;-58
2023/08/19 07:30:51;;;;;;;10.63;7.40;;;;;;;;;;4387049;32;70728;-57
2023/08/19 07:33:38;;;;;;;11.27;8.45;;;;;;;;;;4399354;32;64944;-58
2023/08/19 07:36:25;;;;;;;10.68;7.05;;;;;;;;;;4399124;32;69553;-57
2023/08/19 07:39:12;;;;;;;10.23;8.68;;;;;;;;;;4399016;32;66840;-58
2023/08/19 07:41:58;;;;;;;8.32;5.93;;;;;;;;;;4398794;32;70555;-58
2023/08/19 07:44:47;;;;;;;11.02;8.23;;;;;;;;;;4398946;32;65773;-58
2023/08/19 07:47:33;;;;;;;10.60;8.77;;;;;;;;;;4384158;32;69039;-58
2023/08/19 07:50:20;;;;;;;9.20;7.43;;;;;;;;;;4398974;32;59506;-58
2023/08/19 07:53:06;;;;;;;12.48;9.00;;;;;;;;;;4386811;32;69579;-58
2023/08/19 07:55:52;;;;;;;11.55;8.90;;;;;;;;;;4386787;32;69564;-58
2023/08/19 07:58:39;;;;;;;14.30;8.07;;;;;;;;;;4376014;32;67884;-58
2023/08/19 08:01:26;;;;;;;8.32;6.18;;;;;;;;;;4386958;32;59237;-57
2023/08/19 08:04:12;;;;;;;14.27;8.15;;;;;;;;;;4365494;32;70174;-58
2023/08/19 08:06:59;;;;;;;13.45;8.43;;;;;;;;;;4398551;32;69530;-58
2023/08/19 08:09:46;;;;;;;13.70;8.88;;;;;;;;;;4386661;32;67479;-58
2023/08/19 08:12:32;;;;;;;8.07;6.68;;;;;;;;;;4398402;32;71487;-58
2023/08/19 08:15:19;;;;;;;10.18;8.32;;;;;;;;;;4386557;32;65814;-59
2023/08/19 08:18:06;;;;;;;11.45;7.87;;;;;;;;;;4398576;32;67740;-57
2023/08/19 08:20:53;;;;;;;10.85;8.80;;;;;;;;;;4398829;32;59212;-57
2023/08/19 08:23:40;;;;;;;11.48;6.68;;;;;;;;;;4398187;32;70691;-56
2023/08/19 08:26:27;;;;;;;9.00;7.32;;;;;;;;;;4398931;32;65612;-58
2023/08/19 08:29:13;;;;;;;9.13;7.70;;;;;;;;;;4398611;32;67934;-58
2023/08/19 08:32:00;;;;;;;9.98;6.85;;;;;;;;;;4383560;32;59716;-59
2023/08/19 08:34:46;;;;;;;8.77;7.87;;;;;;;;;;4398222;32;71090;-58
2023/08/19 08:37:34;;;;;;;10.95;7.00;;;;;;;;;;4398193;32;68656;-57
2023/08/19 08:40:21;;;;;;;9.18;6.22;;;;;;;;;;4372497;32;67652;-58
2023/08/19 08:43:08;;;;;;;8.02;6.62;;;;;;;;;;4397964;32;71472;-58
2023/08/19 08:45:55;;;;;;;6.75;5.15;;;;;;;;;;4386297;32;65871;-57
2023/08/19 08:48:43;;;;;;;8.70;6.45;;;;;;;;;;4375305;32;68423;-57
2023/08/19 08:51:30;;;;;;;6.82;5.00;;;;;;;;;;4398066;32;67805;-58
2023/08/19 08:54:17;;;;;;;9.63;6.68;;;;;;;;;;4397741;32;71735;-58
2023/08/19 08:57:04;;;;;;;7.32;6.05;;;;;;;;;;4386122;32;66484;-59
2023/08/19 08:59:52;;;;;;;8.48;7.00;;;;;;;;;;4398114;32;67148;-58
2023/08/19 09:02:40;;;;;;;7.72;6.10;;;;;;;;;;4398284;32;59950;-58
2023/08/19 09:05:29;;;;;;;11.77;7.20;;;;;;;;;;4385857;32;70630;-58
2023/08/19 09:08:17;;;;;;;6.35;5.68;;;;;;;;;;4386094;32;69166;-58
2023/08/19 09:11:06;;;;;;;7.10;5.93;;;;;;;;;;4375591;32;67469;-58
2023/08/19 09:14:16;;;;;;;8.48;6.37;;;;;;;;;;4386123;32;60093;-58
2023/08/19 09:17:02;;;;;;;10.27;6.53;;;;;;;;;;4395550;32;69681;-58
2023/08/19 09:19:49;;;;;;;8.82;6.20;;;;;;;;;;4385783;32;68098;-58
2023/08/19 09:22:42;;;;;;;6.70;6.00;;;;;;;;;;4385942;32;66865;-58
2023/08/19 09:25:31;;;;;;;7.82;6.72;;;;;;;;;;4397646;32;71327;-57
2023/08/19 09:28:18;;;;;;;10.50;6.78;;;;;;;;;;4383056;32;64978;-58
2023/08/19 09:31:21;;;;;;;8.73;6.80;;;;;;;;;;4397752;32;66865;-58
2023/08/19 09:34:07;;;;;;;8.75;6.95;;;;;;;;;;4383111;32;59787;-58
2023/08/19 09:36:55;;;;;;;8.57;6.35;;;;;;;;;;4397511;32;70808;-58
2023/08/19 09:39:42;;;;;;;6.87;5.68;;;;;;;;;;4383067;32;66299;-58
2023/08/19 09:42:28;;;;;;;7.60;6.53;;;;;;;;;;4397750;32;67759;-58
2023/08/19 09:45:21;;;;;;;8.15;6.55;;;;;;;;;;4387095;32;59225;-58
2023/08/19 09:48:07;;;;;;;8.63;6.43;;;;;;;;;;4388441;32;70240;-58
2023/08/19 09:50:54;;;;;;;8.10;7.30;;;;;;;;;;4388209;32;69275;-58
2023/08/19 09:53:41;;;;;;;11.30;6.72;;;;;;;;;;4388300;32;67686;-58
2023/08/19 09:56:28;;;;;;;11.32;6.57;;;;;;;;;;4388188;32;70668;-58
2023/08/19 09:59:14;;;;;;;7.78;4.68;;;;;;;;;;4400276;32;65735;-58
2023/08/19 10:02:01;;;;;;;6.62;4.55;;;;;;;;;;4388657;32;67104;-58
2023/08/19 10:04:48;;;;;;;8.60;6.53;;;;;;;;;;4388179;32;66896;-58
2023/08/19 10:07:34;;;;;;;7.85;5.90;;;;;;;;;;4400068;32;71710;-58
2023/08/19 10:10:21;;;;;;;7.10;6.10;;;;;;;;;;4375065;32;65917;-58
2023/08/19 10:13:08;;;;;;;7.78;5.87;;;;;;;;;;4374788;32;68016;-58
2023/08/19 10:15:58;;;;;;;8.85;6.07;;;;;;;;;;4388404;32;60039;-58
2023/08/19 10:18:46;;;;;;;8.02;6.62;;;;;;;;;;4377564;32;70422;-57
2023/08/19 10:21:33;;;;;;;7.55;5.62;;;;;;;;;;4387949;32;69268;-59
2023/08/19 10:24:20;;;;;;;6.28;5.47;;;;;;;;;;4399693;32;66722;-58
2023/08/19 10:27:15;;;;;;;8.88;5.75;;;;;;;;;;4388216;32;70808;-57
2023/08/19 10:30:21;;;;;;;8.57;5.70;;;;;;;;;;4399812;32;70476;-58
2023/08/19 10:33:30;;;;;;;;;;;;;;;;;;4377113;32;69326;-58
2023/08/19 10:36:18;;;;;;;9.20;6.87;;;;;;;;;;4399889;32;67861;-57
2023/08/19 10:39:07;;;;;;;8.40;6.45;;;;;;;;;;4387615;32;71463;-59
2023/08/19 10:41:54;;;;;;;7.82;5.85;;;;;;;;;;4377603;32;65861;-58
2023/08/19 10:44:40;;;;;;;8.02;6.53;;;;;;;;;;4388353;32;67874;-58
2023/08/19 10:47:27;;;;;;;7.12;5.82;;;;;;;;;;4399826;32;60160;-57
2023/08/19 10:50:14;;;;;;;5.37;4.57;;;;;;;;;;4387682;32;70452;-58
2023/08/19 10:53:05;;;;;;;8.25;5.82;;;;;;;;;;4374336;32;70490;-58
2023/08/19 10:55:55;;;;;;;6.90;5.78;;;;;;;;;;4399211;32;68169;-59
2023/08/19 10:58:41;;;;;;;9.35;6.55;;;;;;;;;;4387955;32;60021;-58
2023/08/19 11:01:31;;;;;;;8.88;6.28;;;;;;;;;;4374127;32;71641;-58
2023/08/19 11:04:19;;;;;;;10.98;6.00;;;;;;;;;;4374235;32;69865;-57
2023/08/19 11:07:07;;;;;;;7.20;6.25;;;;;;;;;;4399379;32;66791;-58
2023/08/19 11:09:54;;;;;;;9.90;6.47;;;;;;;;;;4373949;32;71625;-57
2023/08/19 11:12:45;;;;;;;7.95;6.25;;;;;;;;;;4399404;32;66231;-58
2023/08/19 11:15:32;;;;;;;9.25;6.07;;;;;;;;;;4399641;32;67948;-57
2023/08/19 11:18:22;;;;;;;8.00;5.90;;;;;;;;;;4387263;32;66594;-58
2023/08/19 11:21:08;;;;;;;8.45;6.03;;;;;;;;;;4387425;32;72245;-57
2023/08/19 11:23:55;;;;;;;6.18;4.80;;;;;;;;;;4387120;32;64823;-58
2023/08/19 11:26:43;;;;;;;7.78;6.32;;;;;;;;;;4384612;32;68176;-57
2023/08/19 11:29:30;;;;;;;7.55;6.15;;;;;;;;;;4399677;32;60113;-58
2023/08/19 11:32:20;;;;;;;7.93;6.75;;;;;;;;;;4399231;32;70666;-58
2023/08/19 11:35:07;;;;;;;7.30;6.22;;;;;;;;;;4387209;32;69250;-57
2023/08/19 11:37:53;;;;;;;9.15;6.43;;;;;;;;;;4399354;32;68113;-57
2023/08/19 11:40:43;;;;;;;7.05;6.20;;;;;;;;;;4363745;32;72373;-57
2023/08/19 11:43:44;;;;;;;7.00;5.85;;;;;;;;;;4386927;32;70497;-56
2023/08/19 11:46:32;;;;;;;6.72;5.68;;;;;;;;;;4398815;32;68427;-58
2023/08/19 11:49:19;;;;;;;6.97;6.07;;;;;;;;;;4384179;32;68464;-58
2023/08/19 11:52:06;;;;;;;10.15;6.72;;;;;;;;;;4386643;32;71430;-58
2023/08/19 11:55:03;;;;;;;7.65;4.82;;;;;;;;;;4387302;32;66024;-56
2023/08/19 11:57:50;;;;;;;7.78;5.87;;;;;;;;;;4373375;32;69097;-57
2023/08/19 12:00:36;;;;;;;7.80;5.93;;;;;;;;;;4399147;32;59133;-57
2023/08/19 12:03:26;;;;;;;6.15;4.12;;;;;;;;;;4387115;32;69691;-58
2023/08/19 12:06:13;;;;;;;8.00;5.97;;;;;;;;;;4398688;32;69366;-58
2023/08/19 12:08:59;;;;;;;8.07;5.82;;;;;;;;;;4386260;32;67666;-58
2023/08/19 12:11:52;;;;;;;6.20;5.15;;;;;;;;;;4376221;32;59959;-58
2023/08/19 12:14:39;;;;;;;8.23;6.35;;;;;;;;;;4375881;32;69741;-58
2023/08/19 12:17:26;;;;;;;6.25;5.25;;;;;;;;;;4386777;32;69531;-58
2023/08/19 12:20:12;;;;;;;9.63;6.12;;;;;;;;;;4398710;32;67729;-57
2023/08/19 12:22:58;;;;;;;5.82;4.45;;;;;;;;;;4398391;32;71663;-57
2023/08/19 12:26:03;;;;;;;7.57;5.80;;;;;;;;;;4398669;32;65300;-57
2023/08/19 12:28:49;;;;;;;11.25;6.10;;;;;;;;;;4384237;32;67547;-57
2023/08/19 12:31:36;;;;;;;6.57;5.12;;;;;;;;;;4387017;32;59047;-58
2023/08/19 12:34:22;;;;;;;6.70;5.90;;;;;;;;;;4398627;32;71927;-56
2023/08/19 12:37:09;;;;;;;7.57;5.12;;;;;;;;;;4376284;32;66178;-57
2023/08/19 12:39:56;;;;;;;7.35;5.37;;;;;;;;;;4398354;32;67902;-57
2023/08/19 12:42:42;;;;;;;7.35;5.22;;;;;;;;;;4399151;32;60124;-58
2023/08/19 12:45:29;;;;;;;7.50;5.00;;;;;;;;;;4398578;32;69852;-57
2023/08/19 12:48:16;;;;;;;6.62;4.80;;;;;;;;;;4398385;32;69712;-57
2023/08/19 12:51:02;;;;;;;5.90;5.03;;;;;;;;;;4386668;32;67541;-58
2023/08/19 12:53:49;;;;;;;7.18;5.00;;;;;;;;;;4401063;32;71705;-57
2023/08/19 12:56:36;;;;;;;6.68;5.43;;;;;;;;;;4404189;32;65906;-57
2023/08/19 12:59:23;;;;;;;7.68;5.45;;;;;;;;;;4391528;32;69162;-57
2023/08/19 13:02:09;;;;;;;;;;;;;;;;;;4399432;32;67551;-56
2023/08/19 13:04:56;;;;;;;5.93;4.72;;;;;;;;;;4373191;32;73106;-56
2023/08/19 13:07:42;;;;;;;6.43;5.20;;;;;;;;;;4372755;32;66575;-58
2023/08/19 13:10:32;;;;;;;7.45;5.20;;;;;;;;;;4383599;32;69479;-57
2023/08/19 13:13:18;;;;;;;7.37;5.53;;;;;;;;;;4398483;32;60052;-58
2023/08/19 13:16:07;;;;;;;6.60;5.15;;;;;;;;;;4398138;32;69439;-57
2023/08/19 13:18:54;;;;;;;5.45;4.68;;;;;;;;;;4383114;32;70259;-58
2023/08/19 13:21:41;;;;;;;8.88;5.15;;;;;;;;;;4397909;32;67893;-58
2023/08/19 13:24:27;;;;;;;9.02;5.72;;;;;;;;;;4383161;32;61038;-58
2023/08/19 13:27:15;;;;;;;6.57;5.50;;;;;;;;;;4385756;32;69373;-57
2023/08/19 13:30:02;;;;;;;7.18;5.12;;;;;;;;;;4385915;32;69163;-58
2023/08/19 13:32:49;;;;;;;7.75;5.55;;;;;;;;;;4386185;32;66721;-58
2023/08/19 13:35:38;;;;;;;7.32;5.35;;;;;;;;;;4397804;32;71311;-58
2023/08/19 13:38:25;;;;;;;9.27;5.07;;;;;;;;;;4397788;32;65733;-58
2023/08/19 13:41:11;;;;;;;;;;;;;;;;;;4375559;32;67046;-57
2023/08/19 13:43:58;;;;;;;7.82;5.90;;;;;;;;;;4386212;32;59488;-57
2023/08/19 13:46:44;;;;;;;11.00;6.03;;;;;;;;;;4397496;32;70527;-58
2023/08/19 13:49:34;;;;;;;8.52;5.45;;;;;;;;;;4372752;32;67005;-58
2023/08/19 13:52:42;;;;;;;9.05;5.82;;;;;;;;;;4397654;32;66920;-58
2023/08/19 13:55:29;;;;;;;7.12;5.65;;;;;;;;;;4397835;32;60122;-58
2023/08/19 13:58:16;;;;;;;;;;;;;;;;;;4375314;32;70477;-58
2023/08/19 14:01:04;;;;;;;9.00;5.80;;;;;;;;;;4372356;32;70778;-58
2023/08/19 14:03:53;;;;;;;8.70;5.00;;;;;;;;;;4396290;32;67747;-58
2023/08/19 14:06:39;;;;;;;8.00;6.00;;;;;;;;;;4397329;32;70793;-58
2023/08/19 14:09:28;;;;;;;6.00;4.40;;;;;;;;;;4397704;32;65098;-58
2023/08/19 14:12:16;;;;;;;9.13;5.97;;;;;;;;;;4385318;32;68139;-57
2023/08/19 14:15:04;;;;;;;9.65;5.90;;;;;;;;;;4397467;32;66616;-58
2023/08/19 14:17:53;;;;;;;7.37;6.30;;;;;;;;;;4397105;32;71822;-58
2023/08/19 14:20:42;;;;;;;7.55;6.03;;;;;;;;;;4386091;32;64883;-58
2023/08/19 14:23:31;;;;;;;8.73;6.18;;;;;;;;;;4397178;32;68123;-58
2023/08/19 14:26:18;;;;;;;5.72;4.82;;;;;;;;;;4385986;32;60161;-58
2023/08/19 14:29:07;;;;;;;6.85;5.20;;;;;;;;;;4385430;32;70409;-58
2023/08/19 14:31:54;;;;;;;7.82;5.07;;;;;;;;;;4377308;32;69533;-58
2023/08/19 14:34:42;;;;;;;7.50;5.15;;;;;;;;;;4400157;32;66911;-57
2023/08/19 14:37:28;;;;;;;8.63;5.37;;;;;;;;;;4400136;32;58991;-57
2023/08/19 14:40:23;;;;;;;9.13;5.35;;;;;;;;;;4387970;32;72404;-57
2023/08/19 14:43:10;;;;;;;8.38;5.15;;;;;;;;;;4399745;32;68556;-58
2023/08/19 14:45:56;;;;;;;8.90;5.07;;;;;;;;;;4399864;32;67885;-58
2023/08/19 14:48:43;;;;;;;7.00;5.20;;;;;;;;;;4387589;32;71867;-57
2023/08/19 14:51:30;;;;;;;9.35;5.47;;;;;;;;;;4399958;32;65857;-57
2023/08/19 14:54:18;;;;;;;7.80;4.95;;;;;;;;;;4385140;32;66512;-58
2023/08/19 14:57:07;;;;;;;8.25;5.40;;;;;;;;;;4388198;32;60165;-57
2023/08/19 14:59:55;;;;;;;9.48;5.43;;;;;;;;;;4384692;32;71068;-57
2023/08/19 15:02:44;;;;;;;11.23;5.78;;;;;;;;;;4399584;32;65885;-59
2023/08/19 15:05:31;;;;;;;9.07;5.40;;;;;;;;;;4399487;32;68020;-57
2023/08/19 15:08:20;;;;;;;8.88;6.12;;;;;;;;;;4399724;32;59233;-57
2023/08/19 15:11:07;;;;;;;9.32;5.87;;;;;;;;;;4388284;32;69503;-64
2023/08/19 15:13:54;;;;;;;9.35;5.60;;;;;;;;;;4401048;32;68684;-57
2023/08/19 15:16:41;;;;;;;8.50;5.90;;;;;;;;;;4400497;32;66809;-57
2023/08/19 15:19:27;;;;;;;;;;;;;;;;;;4365409;32;72607;-57
2023/08/19 15:22:13;;;;;;;8.20;5.00;;;;;;;;;;4399611;32;65071;-58
2023/08/19 15:25:03;;;;;;;9.73;5.72;;;;;;;;;;4399622;32;66914;-57
2023/08/19 15:27:50;;;;;;;9.90;5.40;;;;;;;;;;4376788;32;67977;-58
2023/08/19 15:30:37;;;;;;;8.45;5.40;;;;;;;;;;4386977;32;72164;-57
2023/08/19 15:33:26;;;;;;;6.85;5.22;;;;;;;;;;4387583;32;65640;-58
2023/08/19 15:36:35;;;;;;;9.82;5.68;;;;;;;;;;4370117;32;69586;-58
2023/08/19 15:39:22;;;;;;;6.20;4.90;;;;;;;;;;4387627;32;60587;-58
2023/08/19 15:42:08;;;;;;;7.40;4.90;;;;;;;;;;4387166;32;70372;-58
2023/08/19 15:44:55;;;;;;;6.53;5.32;;;;;;;;;;4387029;32;69473;-57
2023/08/19 15:47:42;;;;;;;6.80;4.97;;;;;;;;;;4376241;32;67548;-58
2023/08/19 15:50:34;;;;;;;7.07;4.90;;;;;;;;;;4399184;32;59154;-57
2023/08/19 15:53:22;;;;;;;8.50;5.62;;;;;;;;;;4387058;32;69456;-58
2023/08/19 15:56:09;;;;;;;6.82;4.57;;;;;;;;;;4399071;32;68294;-57
2023/08/19 15:58:55;;;;;;;6.25;4.60;;;;;;;;;;4398997;32;67934;-58
2023/08/19 16:01:42;;;;;;;;;;;;;;;;;;4399115;32;72142;-58
2023/08/19 16:07:14;;;;;;;5.72;4.30;;;;;;;;;;3847313;37;43887;-57
2023/08/19 16:10:01;;;;;;;6.37;4.28;;;;;;;;;;4409903;32;60157;-57
2023/08/19 16:12:48;;;;;;;7.72;4.45;;;;;;;;;;4409727;32;70760;-58
2023/08/19 16:15:37;;;;;;;6.85;4.60;;;;;;;;;;4398161;32;70537;-58
2023/08/19 16:18:28;;;;;;;6.30;4.10;;;;;;;;;;4410899;32;66759;-57
2023/08/19 16:21:17;;;;;;;5.32;3.85;;;;;;;;;;4409400;32;71707;-58
2023/08/19 16:24:04;;;;;;;5.12;4.05;;;;;;;;;;4409572;32;66013;-57
2023/08/19 16:26:51;;;;;;;5.53;4.10;;;;;;;;;;4410557;32;66952;-58
2023/08/19 16:29:37;;;;;;;;;;;;;;;;;;4411343;32;60049;-57
2023/08/19 16:32:26;;;;;;;5.15;4.00;;;;;;;;;;4409573;32;71972;-58
2023/08/19 16:35:13;;;;;;;;;;;;;;;;;;4410974;32;65788;-59
2023/08/19 16:38:00;;;;;;;;;;;;;;;;;;4411288;32;67507;-57
2023/08/19 16:40:48;;;;;;;6.18;4.30;;;;;;;;;;4411047;32;59557;-58
2023/08/19 16:43:36;;;;;;;7.40;3.90;;;;;;;;;;4398359;32;70475;-58
2023/08/19 16:46:24;;;;;;;7.12;3.97;;;;;;;;;;4409067;32;69147;-57
2023/08/19 16:49:10;;;;;;;6.32;4.10;;;;;;;;;;4410458;32;67664;-57
2023/08/19 16:51:56;;;;;;;;;;;;;;;;;;4398358;32;70796;-58